Felix-Klein-Gymnasium, Gttingen, 150m NN
Donnes mto: Actuelle Sonntag, 23.09.2018 16:15
Date Horaire Temp. E. Hum. E. P.atmo. Pluie Vent Direction Direction Ensoleilleme P. de rose Temp au vent Rafales
23.09.2018 16:15 10,9 C 95 % 1002,9 hPa 0,8 mm 10,7 km/h (2 Bft) N 360 0 min 10,1 C 10,9 C 19,3 km/h (3 Bft)
23.09.2018 16:00 10,9 C 94 % 1003,4 hPa 2,0 mm 9,6 km/h (2 Bft) N-NO 341 0 min 10,0 C 10,9 C 17,7 km/h (3 Bft)
23.09.2018 15:45 10,9 C 94 % 1002,7 hPa 1,8 mm 7,9 km/h (2 Bft) E-NE 69 0 min 10,0 C 10,9 C 16,1 km/h (3 Bft)
23.09.2018 15:30 11,1 C 93 % 1003,6 hPa 0,5 mm 4,0 km/h (1 Bft) N 359 0 min 10,0 C 11,1 C 12,9 km/h (3 Bft)
23.09.2018 15:15 11,1 C 93 % 1003,4 hPa 0,3 mm 6,5 km/h (2 Bft) E 99 0 min 10,0 C 11,1 C 20,9 km/h (4 Bft)
23.09.2018 15:00 11,1 C 94 % 1003,3 hPa 0,0 mm 7,4 km/h (2 Bft) E-NE 71 0 min 10,2 C 11,1 C 19,3 km/h (3 Bft)
23.09.2018 14:45 11,3 C 94 % 1004,8 hPa 1,3 mm 5,4 km/h (1 Bft) N 11 0 min 10,4 C 11,3 C 12,9 km/h (3 Bft)
23.09.2018 14:30 11,3 C 94 % 1005,3 hPa 1,5 mm 6,2 km/h (2 Bft) N-NE 13 0 min 10,4 C 11,3 C 16,1 km/h (3 Bft)
23.09.2018 14:15 11,4 C 93 % 1005,5 hPa 2,5 mm 5,7 km/h (1 Bft) N-NE 18 0 min 10,3 C 11,4 C 12,9 km/h (3 Bft)
23.09.2018 14:00 11,6 C 92 % 1005,6 hPa 1,0 mm 1,2 km/h (1 Bft) N 350 0 min 10,3 C 11,6 C 8,0 km/h (2 Bft)
23.09.2018 13:45 11,6 C 92 % 1005,3 hPa 0,0 mm 1,4 km/h (1 Bft) SE 124 0 min 10,3 C 11,6 C 8,0 km/h (2 Bft)
23.09.2018 13:30 11,6 C 92 % 1006,0 hPa 0,5 mm 1,6 km/h (1 Bft) S-SE 158 0 min 10,3 C 11,6 C 11,3 km/h (2 Bft)
23.09.2018 13:15 11,6 C 92 % 1006,3 hPa 0,0 mm 1,4 km/h (1 Bft) SE 132 0 min 10,3 C 11,6 C 11,3 km/h (2 Bft)
23.09.2018 13:00 11,7 C 93 % 1006,9 hPa 0,3 mm 0,8 km/h (0 Bft) SO 217 0 min 10,6 C 11,7 C 9,7 km/h (2 Bft)
23.09.2018 12:45 11,4 C 93 % 1007,1 hPa 0,0 mm 4,7 km/h (1 Bft) S-SE 160 0 min 10,3 C 11,4 C 12,9 km/h (3 Bft)
23.09.2018 12:30 11,4 C 93 % 1007,6 hPa 0,3 mm 3,1 km/h (1 Bft) S-SE 151 0 min 10,3 C 11,4 C 14,5 km/h (3 Bft)
23.09.2018 12:15 11,5 C 93 % 1008,2 hPa 0,0 mm 1,3 km/h (1 Bft) S-SE 153 0 min 10,4 C 11,5 C 8,0 km/h (2 Bft)
23.09.2018 12:00 11,4 C 93 % 1008,4 hPa 0,0 mm 1,9 km/h (1 Bft) SE 138 0 min 10,3 C 11,4 C 9,7 km/h (2 Bft)
23.09.2018 11:45 11,3 C 92 % 1008,8 hPa 0,0 mm 3,5 km/h (1 Bft) S-SE 167 0 min 10,0 C 11,3 C 11,3 km/h (2 Bft)
23.09.2018 11:30 11,3 C 92 % 1009,0 hPa 0,0 mm 4,3 km/h (1 Bft) S-SE 154 0 min 10,0 C 11,3 C 12,9 km/h (3 Bft)
23.09.2018 11:15 11,2 C 92 % 1009,4 hPa 0,0 mm 0,7 km/h (0 Bft) S-SE 166 0 min 9,9 C 11,2 C 6,4 km/h (2 Bft)
23.09.2018 11:00 11,1 C 93 % 1009,7 hPa 0,0 mm 2,0 km/h (1 Bft) S-SE 165 0 min 10,0 C 11,1 C 11,3 km/h (2 Bft)
23.09.2018 10:45 10,9 C 92 % 1009,9 hPa 0,0 mm 1,3 km/h (1 Bft) SE 140 0 min 9,7 C 10,9 C 6,4 km/h (2 Bft)
23.09.2018 10:30 10,9 C 93 % 1010,1 hPa 0,0 mm 2,0 km/h (1 Bft) S-SE 149 0 min 9,8 C 10,9 C 9,7 km/h (2 Bft)
23.09.2018 10:15 10,7 C 93 % 1010,2 hPa 0,0 mm 2,4 km/h (1 Bft) S-SE 157 0 min 9,6 C 10,7 C 12,9 km/h (3 Bft)
23.09.2018 10:00 10,7 C 94 % 1010,6 hPa 0,0 mm 0,6 km/h (0 Bft) S-SE 159 0 min 9,8 C 10,7 C 6,4 km/h (2 Bft)
23.09.2018 09:45 10,6 C 94 % 1010,5 hPa 0,0 mm 0,2 km/h (0 Bft) S-SE 157 0 min 9,7 C 10,6 C 6,4 km/h (2 Bft)
23.09.2018 09:30 10,4 C 94 % 1010,9 hPa 0,3 mm 0,1 km/h (0 Bft) S 189 0 min 9,5 C 10,4 C 3,2 km/h (1 Bft)
23.09.2018 09:15 10,4 C 93 % 1010,8 hPa 0,0 mm 0,4 km/h (0 Bft) S 169 0 min 9,3 C 10,4 C 8,0 km/h (2 Bft)
23.09.2018 09:00 10,3 C 93 % 1010,6 hPa 0,3 mm 1,1 km/h (1 Bft) S-SE 159 0 min 9,2 C 10,3 C 9,7 km/h (2 Bft)
23.09.2018 08:45 10,4 C 93 % 1011,3 hPa 0,3 mm 0,1 km/h (0 Bft) S 171 0 min 9,3 C 10,4 C 4,8 km/h (1 Bft)
23.09.2018 08:30 10,3 C 93 % 1011,0 hPa 0,3 mm 0,0 km/h (0 Bft) S 175 0 min 9,2 C 10,3 C 4,8 km/h (1 Bft)
23.09.2018 08:15 10,3 C 93 % 1011,0 hPa 0,5 mm 0,1 km/h (0 Bft) S 171 0 min 9,2 C 10,3 C 3,2 km/h (1 Bft)
23.09.2018 08:00 10,3 C 93 % 1011,5 hPa 0,0 mm 0,2 km/h (0 Bft) S-SE 164 0 min 9,2 C 10,3 C 4,8 km/h (1 Bft)
23.09.2018 07:45 10,2 C 92 % 1011,6 hPa 0,3 mm 0,3 km/h (0 Bft) SE 146 0 min 9,0 C 10,2 C 4,8 km/h (1 Bft)
23.09.2018 07:30 10,2 C 92 % 1011,6 hPa 0,0 mm 0,8 km/h (0 Bft) S 172 0 min 9,0 C 10,2 C 6,4 km/h (2 Bft)
23.09.2018 07:15 10,2 C 91 % 1011,4 hPa 0,3 mm 0,1 km/h (0 Bft) S 178 0 min 8,8 C 10,2 C 4,8 km/h (1 Bft)
23.09.2018 07:00 10,3 C 91 % 1011,9 hPa 0,0 mm 0,0 km/h (0 Bft) S 186 0 min 8,9 C 10,3 C 1,6 km/h (1 Bft)
23.09.2018 06:45 10,3 C 91 % 1012,3 hPa 0,0 mm 0,0 km/h (0 Bft) S-SO 195 0 min 8,9 C 10,3 C 1,6 km/h (1 Bft)
23.09.2018 06:30 10,3 C 90 % 1012,5 hPa 0,0 mm 0,1 km/h (0 Bft) S 190 0 min 8,7 C 10,3 C 4,8 km/h (1 Bft)
23.09.2018 06:15 10,3 C 90 % 1012,6 hPa 0,0 mm 0,1 km/h (0 Bft) S-SO 195 0 min 8,7 C 10,3 C 4,8 km/h (1 Bft)
23.09.2018 06:00 10,3 C 89 % 1012,7 hPa 0,0 mm 0,7 km/h (0 Bft) S-SO 205 0 min 8,6 C 10,3 C 6,4 km/h (2 Bft)
23.09.2018 05:45 10,3 C 90 % 1012,8 hPa 0,0 mm 1,5 km/h (1 Bft) S 182 0 min 8,7 C 10,3 C 8,0 km/h (2 Bft)
23.09.2018 05:30 10,3 C 90 % 1013,1 hPa 0,0 mm 1,7 km/h (1 Bft) S 188 0 min 8,7 C 10,3 C 8,0 km/h (2 Bft)
23.09.2018 05:15 10,4 C 90 % 1013,3 hPa 0,0 mm 1,0 km/h (0 Bft) S 173 0 min 8,8 C 10,4 C 8,0 km/h (2 Bft)
23.09.2018 05:00 10,4 C 89 % 1013,5 hPa 0,0 mm 1,0 km/h (0 Bft) S 179 0 min 8,7 C 10,4 C 4,8 km/h (1 Bft)
23.09.2018 04:45 10,4 C 89 % 1013,6 hPa 0,0 mm 0,2 km/h (0 Bft) S 188 0 min 8,7 C 10,4 C 4,8 km/h (1 Bft)
23.09.2018 04:30 10,4 C 88 % 1014,0 hPa 0,0 mm 0,1 km/h (0 Bft) S-SO 195 0 min 8,5 C 10,4 C 3,2 km/h (1 Bft)
23.09.2018 04:15 10,4 C 88 % 1014,2 hPa 0,0 mm 0,1 km/h (0 Bft) S-SO 205 0 min 8,5 C 10,4 C 4,8 km/h (1 Bft)
23.09.2018 04:00 10,4 C 88 % 1014,3 hPa 0,0 mm 0,0 km/h (0 Bft) S-SO 211 0 min 8,5 C 10,4 C 0,0 km/h (0 Bft)
23.09.2018 03:45 10,4 C 88 % 1014,7 hPa 0,0 mm 0,0 km/h (0 Bft) S-SO 211 0 min 8,5 C 10,4 C 0,0 km/h (0 Bft)
23.09.2018 03:30 10,3 C 88 % 1014,5 hPa 0,0 mm 0,8 km/h (0 Bft) S-SO 211 0 min 8,4 C 10,3 C 6,4 km/h (2 Bft)
23.09.2018 03:15 10,3 C 88 % 1014,5 hPa 0,0 mm 1,1 km/h (1 Bft) S 189 0 min 8,4 C 10,3 C 8,0 km/h (2 Bft)
23.09.2018 03:00 10,4 C 89 % 1014,7 hPa 0,0 mm 0,3 km/h (0 Bft) S 185 0 min 8,7 C 10,4 C 4,8 km/h (1 Bft)
23.09.2018 02:45 10,4 C 89 % 1015,0 hPa 0,0 mm 0,1 km/h (0 Bft) SO 221 0 min 8,7 C 10,4 C 3,2 km/h (1 Bft)
23.09.2018 02:30 10,4 C 89 % 1015,1 hPa 0,0 mm 0,0 km/h (0 Bft) S-SO 205 0 min 8,7 C 10,4 C 1,6 km/h (1 Bft)
23.09.2018 02:15 10,5 C 89 % 1015,4 hPa 0,0 mm 0,1 km/h (0 Bft) SO 236 0 min 8,8 C 10,5 C 8,0 km/h (2 Bft)
23.09.2018 02:00 10,5 C 89 % 1015,3 hPa 0,0 mm 0,1 km/h (0 Bft) O-SO 237 0 min 8,8 C 10,5 C 3,2 km/h (1 Bft)
23.09.2018 01:45 10,6 C 89 % 1015,5 hPa 0,0 mm 0,1 km/h (0 Bft) SO 236 0 min 8,9 C 10,6 C 3,2 km/h (1 Bft)
23.09.2018 01:30 10,7 C 88 % 1015,6 hPa 0,0 mm 0,0 km/h (0 Bft) SO 222 0 min 8,8 C 10,7 C 3,2 km/h (1 Bft)
23.09.2018 01:15 10,8 C 88 % 1015,5 hPa 0,0 mm 0,0 km/h (0 Bft) S-SO 195 0 min 8,9 C 10,8 C 1,6 km/h (1 Bft)
23.09.2018 01:00 10,8 C 87 % 1016,0 hPa 0,0 mm 0,0 km/h (0 Bft) O-SO 254 0 min 8,7 C 10,8 C 0,0 km/h (0 Bft)
23.09.2018 00:45 10,8 C 86 % 1016,1 hPa 0,0 mm 0,0 km/h (0 Bft) O-SO 254 0 min 8,6 C 10,8 C 0,0 km/h (0 Bft)
23.09.2018 00:30 10,8 C 85 % 1016,2 hPa 0,0 mm 0,0 km/h (0 Bft) O-SO 254 0 min 8,4 C 10,8 C 1,6 km/h (1 Bft)
23.09.2018 00:15 10,8 C 84 % 1016,2 hPa 0,0 mm 0,1 km/h (0 Bft) O-SO 250 0 min 8,2 C 10,8 C 4,8 km/h (1 Bft)
23.09.2018 00:00 10,8 C 83 % 1016,2 hPa 0,0 mm 0,0 km/h (0 Bft) O-SO 249 0 min 8,0 C 10,8 C 0,0 km/h (0 Bft)
22.09.2018 22:45 11,0 C 85 % 1016,6 hPa 0,0 mm 0,7 km/h (0 Bft) O 266 0 min 8,6 C 11,0 C 11,3 km/h (2 Bft)
22.09.2018 22:30 11,1 C 85 % 1016,4 hPa 0,0 mm 0,0 km/h (0 Bft) SO 222 0 min 8,7 C 11,1 C 3,2 km/h (1 Bft)
22.09.2018 22:15 11,2 C 84 % 1016,7 hPa 0,0 mm 0,1 km/h (0 Bft) O 261 0 min 8,6 C 11,2 C 4,8 km/h (1 Bft)
22.09.2018 22:00 11,3 C 83 % 1016,7 hPa 0,0 mm 0,0 km/h (0 Bft) O-NO 286 0 min 8,5 C 11,3 C 0,0 km/h (0 Bft)
22.09.2018 21:45 11,3 C 83 % 1016,5 hPa 0,0 mm 0,0 km/h (0 Bft) O-NO 286 0 min 8,5 C 11,3 C 0,0 km/h (0 Bft)
22.09.2018 21:30 11,4 C 83 % 1016,4 hPa 0,0 mm 0,3 km/h (0 Bft) O-NO 286 0 min 8,6 C 11,4 C 8,0 km/h (2 Bft)
22.09.2018 21:15 11,5 C 83 % 1016,3 hPa 0,0 mm 0,0 km/h (0 Bft) O 281 0 min 8,7 C 11,5 C 3,2 km/h (1 Bft)
22.09.2018 21:00 11,6 C 83 % 1016,3 hPa 0,0 mm 0,0 km/h (0 Bft) O-NO 282 0 min 8,8 C 11,6 C 3,2 km/h (1 Bft)
22.09.2018 20:45 11,7 C 82 % 1016,4 hPa 0,0 mm 0,4 km/h (0 Bft) O 267 0 min 8,7 C 11,7 C 4,8 km/h (1 Bft)
22.09.2018 20:30 11,8 C 80 % 1016,4 hPa 0,0 mm 3,0 km/h (1 Bft) O-SO 255 0 min 8,5 C 11,8 C 12,9 km/h (3 Bft)
22.09.2018 20:15 11,9 C 80 % 1016,1 hPa 0,0 mm 2,9 km/h (1 Bft) O-SO 253 0 min 8,6 C 11,9 C 17,7 km/h (3 Bft)
22.09.2018 20:00 12,0 C 81 % 1015,6 hPa 0,0 mm 0,1 km/h (0 Bft) S-SO 213 0 min 8,8 C 12,0 C 3,2 km/h (1 Bft)
22.09.2018 19:45 12,0 C 79 % 1015,8 hPa 0,0 mm 0,0 km/h (0 Bft) N 10 0 min 8,5 C 12,0 C 0,0 km/h (0 Bft)
22.09.2018 19:30 12,2 C 80 % 1015,9 hPa 0,0 mm 0,1 km/h (0 Bft) N 7 0 min 8,9 C 12,2 C 4,8 km/h (1 Bft)
22.09.2018 19:15 12,4 C 75 % 1016,1 hPa 0,0 mm 10,7 km/h (2 Bft) N 7 0 min 8,1 C 12,4 C 25,7 km/h (4 Bft)
22.09.2018 19:00 14,3 C 64 % 1015,9 hPa 0,0 mm 6,5 km/h (2 Bft) NE 52 0 min 7,6 C 14,3 C 24,1 km/h (4 Bft)
22.09.2018 18:45 14,6 C 60 % 1015,8 hPa 0,0 mm 9,1 km/h (2 Bft) O-SO 240 0 min 6,9 C 14,6 C 25,7 km/h (4 Bft)
22.09.2018 18:30 14,9 C 58 % 1015,4 hPa 0,0 mm 10,7 km/h (2 Bft) SO 223 0 min 6,7 C 14,9 C 27,4 km/h (4 Bft)
22.09.2018 18:15 15,3 C 57 % 1015,5 hPa 0,0 mm 8,9 km/h (2 Bft) O-SO 252 0 min 6,8 C 15,3 C 29,0 km/h (5 Bft)
22.09.2018 18:00 15,5 C 57 % 1015,5 hPa 0,0 mm 7,7 km/h (2 Bft) O-SO 245 0 min 7,0 C 15,5 C 27,4 km/h (4 Bft)
22.09.2018 17:45 15,7 C 57 % 1015,7 hPa 0,0 mm 8,1 km/h (2 Bft) O-NO 302 0 min 7,2 C 15,7 C 29,0 km/h (5 Bft)
22.09.2018 17:30 15,8 C 56 % 1015,7 hPa 0,0 mm 9,4 km/h (2 Bft) O-NO 285 0 min 7,0 C 15,8 C 27,4 km/h (4 Bft)
22.09.2018 17:15 15,8 C 55 % 1015,7 hPa 0,0 mm 4,2 km/h (1 Bft) SO 232 0 min 6,8 C 15,8 C 24,1 km/h (4 Bft)
22.09.2018 17:00 15,8 C 55 % 1015,8 hPa 0,0 mm 10,8 km/h (2 Bft) SO 223 0 min 6,8 C 15,8 C 30,6 km/h (5 Bft)
_ Min-Heure 07:15 17:00 15:45 - 19:45 - - - 18:30 07:15 19:45
Minimum _ 10,2 C 55 % 1002,7 hPa - 0,0 km/h (0 Bft) - - - 6,7 C 10,2 C 0,0 km/h (0 Bft)
_ Max-Heure 17:00 16:15 22:00 14:15 17:00 - - 17:00 13:00 17:00 17:00
Maximum _ 15,8 C 95 % 1016,7 hPa 2,5 mm 10,8 km/h
SO (2 Bft)
- - 0 min 10,6 C 15,8 C 30,6 km/h
SO (5 Bft)
Moyenne _ 11,6 C 84 % 1012,6 hPa #14,7 mm 2,8 km/h (1 Bft) S-SE - #0 min. 8,8 C 11,6 C 10,4 km/h (2 Bft)